sensor_id;sensor_type;location;lat;lon;timestamp;temperature;humidity
23311;DHT22;11828;51.508;18.118;2023-03-05T00:01:22;20.00;21.70
23311;DHT22;11828;51.508;18.118;2023-03-05T00:03:52;19.80;21.70
23311;DHT22;11828;51.508;18.118;2023-03-05T00:06:23;19.90;21.90
23311;DHT22;11828;51.508;18.118;2023-03-05T00:08:51;19.80;21.90
23311;DHT22;11828;51.508;18.118;2023-03-05T00:11:18;19.90;21.90
23311;DHT22;11828;51.508;18.118;2023-03-05T00:13:45;19.90;21.90
23311;DHT22;11828;51.508;18.118;2023-03-05T00:16:13;19.90;22.00
23311;DHT22;11828;51.508;18.118;2023-03-05T00:18:41;19.90;22.00
23311;DHT22;11828;51.508;18.118;2023-03-05T00:21:37;19.90;22.10
23311;DHT22;11828;51.508;18.118;2023-03-05T00:24:10;19.90;22.00
23311;DHT22;11828;51.508;18.118;2023-03-05T00:26:38;19.90;22.10
23311;DHT22;11828;51.508;18.118;2023-03-05T00:29:06;19.80;22.10
23311;DHT22;11828;51.508;18.118;2023-03-05T00:31:33;19.80;22.20
23311;DHT22;11828;51.508;18.118;2023-03-05T00:34:04;19.80;22.30
23311;DHT22;11828;51.508;18.118;2023-03-05T00:36:38;19.80;22.30
23311;DHT22;11828;51.508;18.118;2023-03-05T00:39:06;19.80;22.40
23311;DHT22;11828;51.508;18.118;2023-03-05T00:41:32;19.80;22.50
23311;DHT22;11828;51.508;18.118;2023-03-05T00:43:59;19.70;22.50
23311;DHT22;11828;51.508;18.118;2023-03-05T00:46:25;19.60;22.60
23311;DHT22;11828;51.508;18.118;2023-03-05T00:48:55;19.60;22.70
23311;DHT22;11828;51.508;18.118;2023-03-05T00:51:23;19.60;22.80
23311;DHT22;11828;51.508;18.118;2023-03-05T00:53:49;19.60;22.90
23311;DHT22;11828;51.508;18.118;2023-03-05T00:56:16;19.50;23.10
23311;DHT22;11828;51.508;18.118;2023-03-05T00:58:42;19.50;23.30
23311;DHT22;11828;51.508;18.118;2023-03-05T01:01:08;19.40;23.40
23311;DHT22;11828;51.508;18.118;2023-03-05T01:03:35;19.30;23.60
23311;DHT22;11828;51.508;18.118;2023-03-05T01:06:05;19.20;23.80
23311;DHT22;11828;51.508;18.118;2023-03-05T01:08:33;19.20;24.00
23311;DHT22;11828;51.508;18.118;2023-03-05T01:11:00;19.30;24.20
23311;DHT22;11828;51.508;18.118;2023-03-05T01:13:27;19.30;24.20
23311;DHT22;11828;51.508;18.118;2023-03-05T01:15:53;19.30;24.30
23311;DHT22;11828;51.508;18.118;2023-03-05T01:18:20;19.40;24.40
23311;DHT22;11828;51.508;18.118;2023-03-05T01:20:46;19.40;24.40
23311;DHT22;11828;51.508;18.118;2023-03-05T01:23:13;19.50;24.30
23311;DHT22;11828;51.508;18.118;2023-03-05T01:25:40;19.50;24.20
23311;DHT22;11828;51.508;18.118;2023-03-05T01:28:06;19.40;24.30
23311;DHT22;11828;51.508;18.118;2023-03-05T01:30:34;19.40;24.30
23311;DHT22;11828;51.508;18.118;2023-03-05T01:33:00;19.30;24.30
23311;DHT22;11828;51.508;18.118;2023-03-05T01:35:27;19.30;24.30
23311;DHT22;11828;51.508;18.118;2023-03-05T01:37:53;19.30;24.40
23311;DHT22;11828;51.508;18.118;2023-03-05T01:40:23;19.40;24.50
23311;DHT22;11828;51.508;18.118;2023-03-05T01:43:00;19.30;24.40
23311;DHT22;11828;51.508;18.118;2023-03-05T01:48:41;19.30;24.50
23311;DHT22;11828;51.508;18.118;2023-03-05T01:51:09;19.30;24.50
23311;DHT22;11828;51.508;18.118;2023-03-05T01:53:35;19.40;24.50
23311;DHT22;11828;51.508;18.118;2023-03-05T01:56:01;19.40;24.60
23311;DHT22;11828;51.508;18.118;2023-03-05T01:58:28;19.50;24.80
23311;DHT22;11828;51.508;18.118;2023-03-05T02:00:54;19.40;24.70
23311;DHT22;11828;51.508;18.118;2023-03-05T02:03:22;19.30;24.70
23311;DHT22;11828;51.508;18.118;2023-03-05T02:05:48;19.20;24.90
23311;DHT22;11828;51.508;18.118;2023-03-05T02:08:18;19.20;24.90
23311;DHT22;11828;51.508;18.118;2023-03-05T02:10:47;19.30;24.90
23311;DHT22;11828;51.508;18.118;2023-03-05T02:13:25;19.30;24.90
23311;DHT22;11828;51.508;18.118;2023-03-05T02:15:54;19.30;24.90
23311;DHT22;11828;51.508;18.118;2023-03-05T02:18:22;19.20;24.90
23311;DHT22;11828;51.508;18.118;2023-03-05T02:20:50;19.20;25.00
23311;DHT22;11828;51.508;18.118;2023-03-05T02:23:20;19.20;25.00
23311;DHT22;11828;51.508;18.118;2023-03-05T02:25:47;19.10;25.00
23311;DHT22;11828;51.508;18.118;2023-03-05T02:31:17;19.20;25.20
23311;DHT22;11828;51.508;18.118;2023-03-05T02:33:46;19.30;25.30
23311;DHT22;11828;51.508;18.118;2023-03-05T02:36:12;19.30;25.20
23311;DHT22;11828;51.508;18.118;2023-03-05T02:38:39;19.20;25.20
23311;DHT22;11828;51.508;18.118;2023-03-05T02:41:06;19.20;25.20
23311;DHT22;11828;51.508;18.118;2023-03-05T02:43:33;19.20;25.20
23311;DHT22;11828;51.508;18.118;2023-03-05T02:45:59;19.20;25.20
23311;DHT22;11828;51.508;18.118;2023-03-05T02:48:25;19.20;25.20
23311;DHT22;11828;51.508;18.118;2023-03-05T02:50:52;19.20;25.20
23311;DHT22;11828;51.508;18.118;2023-03-05T02:53:19;19.20;25.10
23311;DHT22;11828;51.508;18.118;2023-03-05T02:55:46;19.10;25.00
23311;DHT22;11828;51.508;18.118;2023-03-05T02:58:13;19.20;25.20
23311;DHT22;11828;51.508;18.118;2023-03-05T03:00:39;19.20;25.10
23311;DHT22;11828;51.508;18.118;2023-03-05T03:03:06;19.20;25.20
23311;DHT22;11828;51.508;18.118;2023-03-05T03:05:32;19.20;25.20
23311;DHT22;11828;51.508;18.118;2023-03-05T03:07:58;19.20;25.20
23311;DHT22;11828;51.508;18.118;2023-03-05T03:10:24;19.30;25.10
23311;DHT22;11828;51.508;18.118;2023-03-05T03:12:50;19.40;25.20
23311;DHT22;11828;51.508;18.118;2023-03-05T03:15:16;19.40;25.10
23311;DHT22;11828;51.508;18.118;2023-03-05T03:17:43;19.50;25.00
23311;DHT22;11828;51.508;18.118;2023-03-05T03:20:13;19.60;24.90
23311;DHT22;11828;51.508;18.118;2023-03-05T03:22:40;19.50;24.90
23311;DHT22;11828;51.508;18.118;2023-03-05T03:25:07;19.50;24.90
23311;DHT22;11828;51.508;18.118;2023-03-05T03:27:34;19.50;24.90
23311;DHT22;11828;51.508;18.118;2023-03-05T03:30:00;19.50;24.90
23311;DHT22;11828;51.508;18.118;2023-03-05T03:32:30;19.50;24.90
23311;DHT22;11828;51.508;18.118;2023-03-05T03:34:57;19.40;24.80
23311;DHT22;11828;51.508;18.118;2023-03-05T03:37:24;19.40;24.90
23311;DHT22;11828;51.508;18.118;2023-03-05T03:39:50;19.40;24.90
23311;DHT22;11828;51.508;18.118;2023-03-05T03:42:17;19.40;24.80
23311;DHT22;11828;51.508;18.118;2023-03-05T03:44:44;19.40;25.30
23311;DHT22;11828;51.508;18.118;2023-03-05T03:47:11;19.30;24.70
23311;DHT22;11828;51.508;18.118;2023-03-05T03:49:36;19.40;24.80
23311;DHT22;11828;51.508;18.118;2023-03-05T03:52:03;19.40;24.70
23311;DHT22;11828;51.508;18.118;2023-03-05T03:54:30;19.40;24.70
23311;DHT22;11828;51.508;18.118;2023-03-05T03:56:56;19.40;24.80
23311;DHT22;11828;51.508;18.118;2023-03-05T03:59:22;19.30;24.80
23311;DHT22;11828;51.508;18.118;2023-03-05T04:01:49;19.30;24.90
23311;DHT22;11828;51.508;18.118;2023-03-05T04:04:17;19.30;24.80
23311;DHT22;11828;51.508;18.118;2023-03-05T04:06:43;19.20;24.80
23311;DHT22;11828;51.508;18.118;2023-03-05T04:09:09;19.20;24.90
23311;DHT22;11828;51.508;18.118;2023-03-05T04:11:36;19.10;24.80
23311;DHT22;11828;51.508;18.118;2023-03-05T04:14:03;19.20;24.80
23311;DHT22;11828;51.508;18.118;2023-03-05T04:16:30;19.10;25.10
23311;DHT22;11828;51.508;18.118;2023-03-05T04:18:56;19.00;24.80
23311;DHT22;11828;51.508;18.118;2023-03-05T04:21:22;19.00;24.80
23311;DHT22;11828;51.508;18.118;2023-03-05T04:23:49;19.00;25.20
23311;DHT22;11828;51.508;18.118;2023-03-05T04:26:15;19.00;24.50
23311;DHT22;11828;51.508;18.118;2023-03-05T04:28:41;19.00;24.50
23311;DHT22;11828;51.508;18.118;2023-03-05T04:31:07;19.00;24.40
23311;DHT22;11828;51.508;18.118;2023-03-05T04:33:33;19.00;24.30
23311;DHT22;11828;51.508;18.118;2023-03-05T04:36:00;19.10;24.30
23311;DHT22;11828;51.508;18.118;2023-03-05T04:38:26;19.10;24.30
23311;DHT22;11828;51.508;18.118;2023-03-05T04:40:52;19.10;24.40
23311;DHT22;11828;51.508;18.118;2023-03-05T04:43:18;19.00;24.40
23311;DHT22;11828;51.508;18.118;2023-03-05T04:45:44;19.10;24.30
23311;DHT22;11828;51.508;18.118;2023-03-05T04:48:11;19.10;24.40
23311;DHT22;11828;51.508;18.118;2023-03-05T04:50:37;19.10;24.30
23311;DHT22;11828;51.508;18.118;2023-03-05T04:53:04;19.10;24.40
23311;DHT22;11828;51.508;18.118;2023-03-05T04:55:30;19.20;24.40
23311;DHT22;11828;51.508;18.118;2023-03-05T04:57:57;19.10;24.40
23311;DHT22;11828;51.508;18.118;2023-03-05T05:00:23;19.00;24.50
23311;DHT22;11828;51.508;18.118;2023-03-05T05:02:50;18.90;24.60
23311;DHT22;11828;51.508;18.118;2023-03-05T05:05:23;18.90;24.70
23311;DHT22;11828;51.508;18.118;2023-03-05T05:07:55;18.90;24.80
23311;DHT22;11828;51.508;18.118;2023-03-05T05:10:23;18.90;24.90
23311;DHT22;11828;51.508;18.118;2023-03-05T05:12:50;19.00;24.90
23311;DHT22;11828;51.508;18.118;2023-03-05T05:15:16;19.10;25.00
23311;DHT22;11828;51.508;18.118;2023-03-05T05:17:42;19.10;25.00
23311;DHT22;11828;51.508;18.118;2023-03-05T05:20:11;19.00;25.00
23311;DHT22;11828;51.508;18.118;2023-03-05T05:22:38;19.10;25.10
23311;DHT22;11828;51.508;18.118;2023-03-05T05:25:05;19.10;25.20
23311;DHT22;11828;51.508;18.118;2023-03-05T05:27:31;19.10;25.20
23311;DHT22;11828;51.508;18.118;2023-03-05T05:29:58;19.00;25.20
23311;DHT22;11828;51.508;18.118;2023-03-05T05:32:24;19.00;25.20
23311;DHT22;11828;51.508;18.118;2023-03-05T05:34:55;18.90;25.20
23311;DHT22;11828;51.508;18.118;2023-03-05T05:37:22;18.90;25.40
23311;DHT22;11828;51.508;18.118;2023-03-05T05:39:50;18.90;25.50
23311;DHT22;11828;51.508;18.118;2023-03-05T05:42:17;18.90;25.60
23311;DHT22;11828;51.508;18.118;2023-03-05T05:44:44;18.90;25.70
23311;DHT22;11828;51.508;18.118;2023-03-05T05:47:16;18.80;25.70
23311;DHT22;11828;51.508;18.118;2023-03-05T05:49:43;18.90;25.80
23311;DHT22;11828;51.508;18.118;2023-03-05T05:52:09;18.70;25.90
23311;DHT22;11828;51.508;18.118;2023-03-05T05:54:36;18.80;26.30
23311;DHT22;11828;51.508;18.118;2023-03-05T05:57:02;18.70;26.10
23311;DHT22;11828;51.508;18.118;2023-03-05T05:59:29;18.70;26.10
23311;DHT22;11828;51.508;18.118;2023-03-05T06:01:55;18.80;26.10
23311;DHT22;11828;51.508;18.118;2023-03-05T06:04:21;18.80;26.30
23311;DHT22;11828;51.508;18.118;2023-03-05T06:06:47;18.70;26.20
23311;DHT22;11828;51.508;18.118;2023-03-05T06:09:14;18.70;26.30
23311;DHT22;11828;51.508;18.118;2023-03-05T06:11:40;18.70;26.40
23311;DHT22;11828;51.508;18.118;2023-03-05T06:14:06;18.60;26.50
23311;DHT22;11828;51.508;18.118;2023-03-05T06:16:33;18.60;26.70
23311;DHT22;11828;51.508;18.118;2023-03-05T06:19:00;18.60;26.80
23311;DHT22;11828;51.508;18.118;2023-03-05T06:21:29;18.50;26.70
23311;DHT22;11828;51.508;18.118;2023-03-05T06:23:55;18.60;27.00
23311;DHT22;11828;51.508;18.118;2023-03-05T06:26:23;18.60;27.00
23311;DHT22;11828;51.508;18.118;2023-03-05T06:28:50;18.60;27.00
23311;DHT22;11828;51.508;18.118;2023-03-05T06:31:19;18.60;27.00
23311;DHT22;11828;51.508;18.118;2023-03-05T06:33:48;18.60;27.20
23311;DHT22;11828;51.508;18.118;2023-03-05T06:36:16;18.70;27.20
23311;DHT22;11828;51.508;18.118;2023-03-05T06:38:44;18.70;27.20
23311;DHT22;11828;51.508;18.118;2023-03-05T06:41:12;18.50;27.30
23311;DHT22;11828;51.508;18.118;2023-03-05T06:43:42;18.60;27.50
23311;DHT22;11828;51.508;18.118;2023-03-05T06:46:13;18.50;27.60
23311;DHT22;11828;51.508;18.118;2023-03-05T06:48:41;18.60;27.60
23311;DHT22;11828;51.508;18.118;2023-03-05T06:51:22;18.60;27.70
23311;DHT22;11828;51.508;18.118;2023-03-05T06:54:00;18.60;27.60
23311;DHT22;11828;51.508;18.118;2023-03-05T06:56:30;18.60;27.60
23311;DHT22;11828;51.508;18.118;2023-03-05T06:58:57;18.60;27.70
23311;DHT22;11828;51.508;18.118;2023-03-05T07:01:23;18.70;27.70
23311;DHT22;11828;51.508;18.118;2023-03-05T07:03:52;18.60;27.70
23311;DHT22;11828;51.508;18.118;2023-03-05T07:06:19;18.60;27.90
23311;DHT22;11828;51.508;18.118;2023-03-05T07:08:46;18.60;27.80
23311;DHT22;11828;51.508;18.118;2023-03-05T07:11:22;18.80;27.90
23311;DHT22;11828;51.508;18.118;2023-03-05T07:13:49;18.80;27.70
23311;DHT22;11828;51.508;18.118;2023-03-05T07:16:22;18.70;27.70
23311;DHT22;11828;51.508;18.118;2023-03-05T07:18:51;18.80;27.80
23311;DHT22;11828;51.508;18.118;2023-03-05T07:21:20;18.80;27.90
23311;DHT22;11828;51.508;18.118;2023-03-05T07:23:49;18.60;28.10
23311;DHT22;11828;51.508;18.118;2023-03-05T07:26:17;18.60;28.60
23311;DHT22;11828;51.508;18.118;2023-03-05T07:28:43;18.50;28.70
23311;DHT22;11828;51.508;18.118;2023-03-05T07:31:18;18.60;28.70
23311;DHT22;11828;51.508;18.118;2023-03-05T07:33:49;18.70;28.80
23311;DHT22;11828;51.508;18.118;2023-03-05T07:36:16;18.60;28.80
23311;DHT22;11828;51.508;18.118;2023-03-05T07:38:43;18.80;28.90
23311;DHT22;11828;51.508;18.118;2023-03-05T07:41:12;18.90;28.80
23311;DHT22;11828;51.508;18.118;2023-03-05T07:43:48;18.90;28.80
23311;DHT22;11828;51.508;18.118;2023-03-05T07:46:17;18.90;29.10
23311;DHT22;11828;51.508;18.118;2023-03-05T07:48:45;19.00;28.90
23311;DHT22;11828;51.508;18.118;2023-03-05T07:51:16;18.90;29.10
23311;DHT22;11828;51.508;18.118;2023-03-05T07:53:46;19.00;29.20
23311;DHT22;11828;51.508;18.118;2023-03-05T07:56:16;19.00;29.50
23311;DHT22;11828;51.508;18.118;2023-03-05T07:58:49;18.90;29.50
23311;DHT22;11828;51.508;18.118;2023-03-05T08:01:15;18.80;29.70
23311;DHT22;11828;51.508;18.118;2023-03-05T08:03:42;18.70;30.00
23311;DHT22;11828;51.508;18.118;2023-03-05T08:06:09;18.60;30.10
23311;DHT22;11828;51.508;18.118;2023-03-05T08:08:37;18.50;30.30
23311;DHT22;11828;51.508;18.118;2023-03-05T08:11:13;18.50;30.50
23311;DHT22;11828;51.508;18.118;2023-03-05T08:13:42;18.50;30.60
23311;DHT22;11828;51.508;18.118;2023-03-05T08:16:12;18.60;30.90
23311;DHT22;11828;51.508;18.118;2023-03-05T08:18:40;18.50;30.70
23311;DHT22;11828;51.508;18.118;2023-03-05T08:21:21;18.50;30.60
23311;DHT22;11828;51.508;18.118;2023-03-05T08:23:52;18.40;30.50
23311;DHT22;11828;51.508;18.118;2023-03-05T08:26:20;18.50;30.70
23311;DHT22;11828;51.508;18.118;2023-03-05T08:28:48;18.70;30.70
23311;DHT22;11828;51.508;18.118;2023-03-05T08:31:15;18.80;30.50
23311;DHT22;11828;51.508;18.118;2023-03-05T08:33:43;18.80;30.40
23311;DHT22;11828;51.508;18.118;2023-03-05T08:36:09;18.80;30.20
23311;DHT22;11828;51.508;18.118;2023-03-05T08:38:36;18.90;30.30
23311;DHT22;11828;51.508;18.118;2023-03-05T08:41:02;19.00;30.90
23311;DHT22;11828;51.508;18.118;2023-03-05T08:43:29;18.90;30.20
23311;DHT22;11828;51.508;18.118;2023-03-05T08:45:56;18.90;30.30
23311;DHT22;11828;51.508;18.118;2023-03-05T08:48:23;18.90;30.30
23311;DHT22;11828;51.508;18.118;2023-03-05T08:50:50;19.00;30.40
23311;DHT22;11828;51.508;18.118;2023-03-05T08:53:16;19.00;30.40
23311;DHT22;11828;51.508;18.118;2023-03-05T08:55:42;19.10;30.40
23311;DHT22;11828;51.508;18.118;2023-03-05T08:58:08;19.20;30.40
23311;DHT22;11828;51.508;18.118;2023-03-05T09:00:35;19.20;30.20
23311;DHT22;11828;51.508;18.118;2023-03-05T09:03:01;19.30;30.30
23311;DHT22;11828;51.508;18.118;2023-03-05T09:05:27;19.40;30.20
23311;DHT22;11828;51.508;18.118;2023-03-05T09:07:53;19.50;30.00
23311;DHT22;11828;51.508;18.118;2023-03-05T09:10:19;19.60;30.00
23311;DHT22;11828;51.508;18.118;2023-03-05T09:12:46;19.70;29.90
23311;DHT22;11828;51.508;18.118;2023-03-05T09:15:13;19.90;29.60
23311;DHT22;11828;51.508;18.118;2023-03-05T09:17:40;19.90;29.50
23311;DHT22;11828;51.508;18.118;2023-03-05T09:20:10;19.90;29.70
23311;DHT22;11828;51.508;18.118;2023-03-05T09:22:37;20.10;29.20
23311;DHT22;11828;51.508;18.118;2023-03-05T09:25:04;20.20;29.10
23311;DHT22;11828;51.508;18.118;2023-03-05T09:27:35;20.30;28.60
23311;DHT22;11828;51.508;18.118;2023-03-05T09:30:02;20.40;28.60
23311;DHT22;11828;51.508;18.118;2023-03-05T09:32:29;20.30;28.40
23311;DHT22;11828;51.508;18.118;2023-03-05T09:34:56;20.30;28.40
23311;DHT22;11828;51.508;18.118;2023-03-05T09:37:23;20.20;28.50
23311;DHT22;11828;51.508;18.118;2023-03-05T09:39:49;20.20;28.50
23311;DHT22;11828;51.508;18.118;2023-03-05T09:45:26;20.30;28.40
23311;DHT22;11828;51.508;18.118;2023-03-05T09:48:20;20.20;28.40
23311;DHT22;11828;51.508;18.118;2023-03-05T09:51:13;20.20;28.40
23311;DHT22;11828;51.508;18.118;2023-03-05T09:56:34;20.20;28.50
23311;DHT22;11828;51.508;18.118;2023-03-05T09:59:13;20.30;28.20
23311;DHT22;11828;51.508;18.118;2023-03-05T10:01:45;20.30;28.20
23311;DHT22;11828;51.508;18.118;2023-03-05T10:07:00;20.50;28.00
23311;DHT22;11828;51.508;18.118;2023-03-05T10:15:00;20.80;27.40
23311;DHT22;11828;51.508;18.118;2023-03-05T10:17:38;20.70;27.30
23311;DHT22;11828;51.508;18.118;2023-03-05T10:29:27;20.60;27.50
23311;DHT22;11828;51.508;18.118;2023-03-05T10:46:21;20.90;27.30
23311;DHT22;11828;51.508;18.118;2023-03-05T10:49:00;21.10;27.20
23311;DHT22;11828;51.508;18.118;2023-03-05T10:52:12;20.90;27.00
23311;DHT22;11828;51.508;18.118;2023-03-05T10:54:40;21.10;26.60
23311;DHT22;11828;51.508;18.118;2023-03-05T10:59:52;21.30;26.40
23311;DHT22;11828;51.508;18.118;2023-03-05T11:03:03;21.30;26.10
23311;DHT22;11828;51.508;18.118;2023-03-05T11:11:03;21.20;25.90
23311;DHT22;11828;51.508;18.118;2023-03-05T11:13:36;21.40;26.10
23311;DHT22;11828;51.508;18.118;2023-03-05T11:16:10;21.40;25.90
23311;DHT22;11828;51.508;18.118;2023-03-05T11:18:41;21.50;26.00
23311;DHT22;11828;51.508;18.118;2023-03-05T11:21:21;21.60;25.90
23311;DHT22;11828;51.508;18.118;2023-03-05T11:24:12;21.70;25.70
23311;DHT22;11828;51.508;18.118;2023-03-05T11:26:51;21.70;25.60
23311;DHT22;11828;51.508;18.118;2023-03-05T11:29:29;21.70;25.30
23311;DHT22;11828;51.508;18.118;2023-03-05T11:32:25;21.80;25.20
23311;DHT22;11828;51.508;18.118;2023-03-05T11:34:53;21.70;25.10
23311;DHT22;11828;51.508;18.118;2023-03-05T11:37:30;21.50;24.90
23311;DHT22;11828;51.508;18.118;2023-03-05T11:40:17;21.40;24.90
23311;DHT22;11828;51.508;18.118;2023-03-05T11:42:55;21.50;25.40
23311;DHT22;11828;51.508;18.118;2023-03-05T11:45:25;21.50;24.60
23311;DHT22;11828;51.508;18.118;2023-03-05T11:47:55;21.40;24.50
23311;DHT22;11828;51.508;18.118;2023-03-05T11:50:25;21.50;24.80
23311;DHT22;11828;51.508;18.118;2023-03-05T11:53:19;21.50;24.40
23311;DHT22;11828;51.508;18.118;2023-03-05T11:55:57;21.60;24.50
23311;DHT22;11828;51.508;18.118;2023-03-05T11:58:51;21.70;24.50
23311;DHT22;11828;51.508;18.118;2023-03-05T12:01:25;21.70;24.10
23311;DHT22;11828;51.508;18.118;2023-03-05T12:03:53;21.70;24.10
23311;DHT22;11828;51.508;18.118;2023-03-05T12:06:33;21.70;24.30
23311;DHT22;11828;51.508;18.118;2023-03-05T12:12:38;21.60;24.80
23311;DHT22;11828;51.508;18.118;2023-03-05T12:17:53;21.60;25.20
23311;DHT22;11828;51.508;18.118;2023-03-05T12:20:56;21.50;25.30
23311;DHT22;11828;51.508;18.118;2023-03-05T12:23:51;21.30;25.60
23311;DHT22;11828;51.508;18.118;2023-03-05T12:26:18;21.20;26.20
23311;DHT22;11828;51.508;18.118;2023-03-05T12:29:49;21.30;26.30
23311;DHT22;11828;51.508;18.118;2023-03-05T12:35:27;21.40;25.70
23311;DHT22;11828;51.508;18.118;2023-03-05T12:38:03;21.60;25.40
23311;DHT22;11828;51.508;18.118;2023-03-05T12:40:38;21.60;25.20
23311;DHT22;11828;51.508;18.118;2023-03-05T12:43:26;21.50;24.50
23311;DHT22;11828;51.508;18.118;2023-03-05T12:46:22;21.40;24.20
23311;DHT22;11828;51.508;18.118;2023-03-05T12:48:54;21.60;23.70
23311;DHT22;11828;51.508;18.118;2023-03-05T12:51:37;21.70;23.60
23311;DHT22;11828;51.508;18.118;2023-03-05T12:54:31;21.80;23.60
23311;DHT22;11828;51.508;18.118;2023-03-05T12:57:03;22.00;23.50
23311;DHT22;11828;51.508;18.118;2023-03-05T13:00:09;22.10;23.20
23311;DHT22;11828;51.508;18.118;2023-03-05T13:02:42;22.20;23.20
23311;DHT22;11828;51.508;18.118;2023-03-05T13:05:20;22.30;23.30
23311;DHT22;11828;51.508;18.118;2023-03-05T13:07:49;22.30;23.10
23311;DHT22;11828;51.508;18.118;2023-03-05T13:10:25;22.40;22.90
23311;DHT22;11828;51.508;18.118;2023-03-05T13:12:54;22.40;22.90
23311;DHT22;11828;51.508;18.118;2023-03-05T13:15:25;22.30;23.10
23311;DHT22;11828;51.508;18.118;2023-03-05T13:28:21;21.80;23.60
23311;DHT22;11828;51.508;18.118;2023-03-05T13:30:57;21.80;23.50
23311;DHT22;11828;51.508;18.118;2023-03-05T13:33:30;21.60;23.50
23311;DHT22;11828;51.508;18.118;2023-03-05T13:35:58;21.60;23.40
23311;DHT22;11828;51.508;18.118;2023-03-05T13:43:54;21.30;23.40
23311;DHT22;11828;51.508;18.118;2023-03-05T13:46:35;21.20;23.70
23311;DHT22;11828;51.508;18.118;2023-03-05T13:49:24;21.00;24.00
23311;DHT22;11828;51.508;18.118;2023-03-05T13:51:54;20.90;24.30
23311;DHT22;11828;51.508;18.118;2023-03-05T13:54:23;20.80;24.50
23311;DHT22;11828;51.508;18.118;2023-03-05T13:57:02;20.70;24.50
23311;DHT22;11828;51.508;18.118;2023-03-05T13:59:32;20.50;24.50
23311;DHT22;11828;51.508;18.118;2023-03-05T14:02:10;20.50;24.70
23311;DHT22;11828;51.508;18.118;2023-03-05T14:04:44;20.50;25.10
23311;DHT22;11828;51.508;18.118;2023-03-05T14:07:38;20.40;24.50
23311;DHT22;11828;51.508;18.118;2023-03-05T14:10:35;20.40;24.50
23311;DHT22;11828;51.508;18.118;2023-03-05T14:13:10;20.40;24.60
23311;DHT22;11828;51.508;18.118;2023-03-05T14:15:38;20.40;24.60
23311;DHT22;11828;51.508;18.118;2023-03-05T14:20:38;20.40;24.70
23311;DHT22;11828;51.508;18.118;2023-03-05T14:29:13;20.50;24.40
23311;DHT22;11828;51.508;18.118;2023-03-05T14:31:51;20.60;24.40
23311;DHT22;11828;51.508;18.118;2023-03-05T14:37:01;20.60;24.70
23311;DHT22;11828;51.508;18.118;2023-03-05T14:42:58;20.90;24.50
23311;DHT22;11828;51.508;18.118;2023-03-05T14:45:33;20.90;24.10
23311;DHT22;11828;51.508;18.118;2023-03-05T14:48:04;21.00;24.00
23311;DHT22;11828;51.508;18.118;2023-03-05T14:50:36;21.00;23.60
23311;DHT22;11828;51.508;18.118;2023-03-05T14:53:11;21.00;23.80
23311;DHT22;11828;51.508;18.118;2023-03-05T14:55:40;21.00;23.60
23311;DHT22;11828;51.508;18.118;2023-03-05T14:58:21;21.00;23.60
23311;DHT22;11828;51.508;18.118;2023-03-05T15:00:52;21.00;23.70
23311;DHT22;11828;51.508;18.118;2023-03-05T15:03:19;20.90;23.60
23311;DHT22;11828;51.508;18.118;2023-03-05T15:05:48;21.00;23.80
23311;DHT22;11828;51.508;18.118;2023-03-05T15:08:29;20.90;23.90
23311;DHT22;11828;51.508;18.118;2023-03-05T15:10:57;20.90;23.90
23311;DHT22;11828;51.508;18.118;2023-03-05T15:13:24;20.80;23.80
23311;DHT22;11828;51.508;18.118;2023-03-05T15:15:52;20.70;24.10
23311;DHT22;11828;51.508;18.118;2023-03-05T15:18:20;20.70;24.20
23311;DHT22;11828;51.508;18.118;2023-03-05T15:20:47;20.60;24.20
23311;DHT22;11828;51.508;18.118;2023-03-05T15:23:16;20.60;24.30
23311;DHT22;11828;51.508;18.118;2023-03-05T15:25:42;20.50;24.30
23311;DHT22;11828;51.508;18.118;2023-03-05T15:28:08;20.40;24.30
23311;DHT22;11828;51.508;18.118;2023-03-05T15:30:38;20.30;24.60
23311;DHT22;11828;51.508;18.118;2023-03-05T15:33:09;20.20;24.80
23311;DHT22;11828;51.508;18.118;2023-03-05T15:35:37;20.20;24.90
23311;DHT22;11828;51.508;18.118;2023-03-05T15:38:03;20.20;25.10
23311;DHT22;11828;51.508;18.118;2023-03-05T15:40:30;20.30;25.20
23311;DHT22;11828;51.508;18.118;2023-03-05T15:42:57;20.30;25.20
23311;DHT22;11828;51.508;18.118;2023-03-05T15:45:25;20.30;25.20
23311;DHT22;11828;51.508;18.118;2023-03-05T15:47:52;20.30;25.20
23311;DHT22;11828;51.508;18.118;2023-03-05T15:50:20;20.40;25.30
23311;DHT22;11828;51.508;18.118;2023-03-05T15:52:47;20.30;25.30
23311;DHT22;11828;51.508;18.118;2023-03-05T15:55:14;20.40;25.50
23311;DHT22;11828;51.508;18.118;2023-03-05T15:57:45;20.40;25.40
23311;DHT22;11828;51.508;18.118;2023-03-05T16:00:14;20.30;25.30
23311;DHT22;11828;51.508;18.118;2023-03-05T16:02:43;20.40;25.30
23311;DHT22;11828;51.508;18.118;2023-03-05T16:05:09;20.40;25.40
23311;DHT22;11828;51.508;18.118;2023-03-05T16:07:38;20.40;25.40
23311;DHT22;11828;51.508;18.118;2023-03-05T16:10:10;20.40;25.60
23311;DHT22;11828;51.508;18.118;2023-03-05T16:12:44;20.40;25.70
23311;DHT22;11828;51.508;18.118;2023-03-05T16:15:14;20.30;25.70
23311;DHT22;11828;51.508;18.118;2023-03-05T16:17:43;20.30;25.90
23311;DHT22;11828;51.508;18.118;2023-03-05T16:20:11;20.30;26.00
23311;DHT22;11828;51.508;18.118;2023-03-05T16:22:38;20.40;26.00
23311;DHT22;11828;51.508;18.118;2023-03-05T16:25:05;20.40;26.30
23311;DHT22;11828;51.508;18.118;2023-03-05T16:27:31;20.30;26.20
23311;DHT22;11828;51.508;18.118;2023-03-05T16:29:57;20.40;26.30
23311;DHT22;11828;51.508;18.118;2023-03-05T16:32:23;20.40;26.40
23311;DHT22;11828;51.508;18.118;2023-03-05T16:34:50;20.40;26.30
23311;DHT22;11828;51.508;18.118;2023-03-05T16:37:21;20.50;26.30
23311;DHT22;11828;51.508;18.118;2023-03-05T16:39:48;20.50;26.30
23311;DHT22;11828;51.508;18.118;2023-03-05T16:42:15;20.50;26.40
23311;DHT22;11828;51.508;18.118;2023-03-05T16:44:42;20.50;26.10
23311;DHT22;11828;51.508;18.118;2023-03-05T16:47:10;20.50;26.00
23311;DHT22;11828;51.508;18.118;2023-03-05T16:49:38;20.50;25.80
23311;DHT22;11828;51.508;18.118;2023-03-05T16:52:04;20.40;25.60
23311;DHT22;11828;51.508;18.118;2023-03-05T16:54:32;20.40;25.50
23311;DHT22;11828;51.508;18.118;2023-03-05T16:56:58;20.40;25.50
23311;DHT22;11828;51.508;18.118;2023-03-05T16:59:26;20.30;25.40
23311;DHT22;11828;51.508;18.118;2023-03-05T17:01:52;20.30;25.40
23311;DHT22;11828;51.508;18.118;2023-03-05T17:04:19;20.30;25.40
23311;DHT22;11828;51.508;18.118;2023-03-05T17:06:46;20.20;25.40